This is the latest recevied weather packets stored in our database for station/object DO7CRZ-11. If no packets are shown the sender has not sent any weather packets the latest 10 day(s).
| Time | Temp. | Humidity | Pressure | Rain* | Wind** | Luminosity | Snow |
|---|---|---|---|---|---|---|---|
| 1777527736 | 3.33° C | 76% | 1031.6 hPa | 0 mm | - | 148 W/m² | - |
| 1777527129 | 2.78° C | 78% | 1031.6 hPa | 0 mm | - | 124 W/m² | - |
| 1777526532 | 1.67° C | 81% | 1031.6 hPa | 0 mm | - | 98 W/m² | - |
| 1777524729 | -1.67° C | 82% | 1031.5 hPa | 0 mm | - | 44 W/m² | - |
| 1777524132 | -2.22° C | 81% | 1031.3 hPa | 0 mm | - | 31 W/m² | - |
| 1777523537 | -2.22° C | 81% | 1031.3 hPa | 0 mm | - | 24 W/m² | - |
| 1777522928 | -2.78° C | 81% | 1031.2 hPa | 0 mm | - | 18 W/m² | - |
| 1777522333 | -2.78° C | 80% | 1031.2 hPa | 0 mm | - | 13 W/m² | - |
| 1777521736 | -2.78° C | 80% | 1031.3 hPa | 0 mm | - | 9 W/m² | - |
| 1777521138 | -2.78° C | 79% | 1031.2 hPa | 0 mm | - | 5 W/m² | - |
| 1777520528 | -2.78° C | 79% | 1031.2 hPa | 0 mm | - | 3 W/m² | - |
| 1777519334 | -2.78° C | 78% | 1031.1 hPa | 0 mm | - | 0 W/m² | - |
| 1777518129 | -2.78° C | 78% | 1030.9 hPa | 0 mm | - | 0 W/m² | - |
| 1777516936 | -2.78° C | 77% | 1031 hPa | 0 mm | - | 0 W/m² | - |
| 1777516327 | -2.78° C | 76% | 1031 hPa | 0 mm | - | 0 W/m² | - |
| 1777515733 | -2.22° C | 76% | 1031.1 hPa | 0 mm | - | 0 W/m² | - |
| 1777515132 | -2.22° C | 76% | 1031.1 hPa | 0 mm | - | 0 W/m² | - |
| 1777514535 | -2.22° C | 75% | 1031 hPa | 0 mm | - | 0 W/m² | - |
| 1777513927 | -2.22° C | 75% | 1031.1 hPa | 0 mm | - | 0 W/m² | - |
| 1777513330 | -2.22° C | 74% | 1031.1 hPa | 0 mm | - | 0 W/m² | - |
| 1777512734 | -2.22° C | 74% | 1030.9 hPa | 0 mm | - | 0 W/m² | - |
| 1777512126 | -2.22° C | 73% | 1030.9 hPa | 0 mm | - | 0 W/m² | - |
| 1777511529 | -2.22° C | 72% | 1030.9 hPa | 0 mm | - | 0 W/m² | - |
| 1777510931 | -1.67° C | 72% | 1030.9 hPa | 0 mm | - | 0 W/m² | - |
| 1777510333 | -1.67° C | 72% | 1030.7 hPa | 0 mm | - | 0 W/m² | - |
* Rain latest hour (hover to see other rain measurements)
** Current wind speed in m/s (hover to see current wind gust speed)